Time;durP1;ratioP1;P1;durP2;ratioP2;P2;SDS_P1;SDS_P2;PMS_P1;PMS_P2;Temp;Humidity;BMP_temperature;BMP_pressure;BME280_temperature;BME280_humidity;BME280_pressure;Samples;Min_cycle;Max_cycle;Signal;HPM_P1;HPM_P2
2022/02/02 00:02:58;;;;;;;5.72;3.28;;;8.70;39.30;;;;;;5032805;28;20505;-68
2022/02/02 00:13:00;;;;;;;6.10;3.17;;;8.60;39.50;;;;;;5032626;28;20026;-67
2022/02/02 00:18:26;;;;;;;6.28;3.45;;;8.60;39.80;;;;;;5032805;28;20417;-66
2022/02/02 00:23:18;;;;;;;8.55;4.05;;;8.50;39.30;;;;;;5032897;28;20498;-66
2022/02/02 00:25:56;;;;;;;14.70;4.10;;;8.50;39.30;;;;;;5033105;28;20084;-70
2022/02/02 00:28:26;;;;;;;6.90;3.78;;;8.40;39.70;;;;;;5032716;28;20017;-66
2022/02/02 00:30:53;;;;;;;6.75;3.58;;;8.40;39.20;;;;;;5032655;28;20116;-66
2022/02/02 00:33:27;;;;;;;7.93;3.92;;;8.30;39.20;;;;;;5032521;28;20029;-65
2022/02/02 00:36:10;;;;;;;6.15;3.67;;;8.30;40.10;;;;;;5032732;28;20026;-64
2022/02/02 00:38:35;;;;;;;8.40;4.10;;;8.30;40.00;;;;;;5032913;28;20029;-65
2022/02/02 00:41:01;;;;;;;7.07;3.78;;;8.30;39.40;;;;;;5032846;28;20029;-68
2022/02/02 00:43:27;;;;;;;5.32;3.33;;;8.20;39.20;;;;;;5032317;28;20083;-65
2022/02/02 00:45:53;;;;;;;6.40;3.20;;;8.20;39.40;;;;;;5032480;28;20359;-65
2022/02/02 00:48:24;;;;;;;6.65;3.60;;;8.20;39.40;;;;;;5032468;28;20386;-69
2022/02/02 00:50:50;;;;;;;7.25;3.97;;;8.30;39.70;;;;;;5032748;28;20037;-69
2022/02/02 00:53:17;;;;;;;5.93;3.47;;;8.30;39.80;;;;;;5031195;28;20474;-65
2022/02/02 00:55:43;;;;;;;6.72;4.10;;;8.30;39.90;;;;;;5032401;28;20355;-66
2022/02/02 00:58:09;;;;;;;6.32;3.53;;;8.40;39.70;;;;;;5032541;28;20364;-64
2022/02/02 01:00:36;;;;;;;6.90;4.20;;;8.30;39.80;;;;;;5032581;28;20053;-65
2022/02/02 01:03:02;;;;;;;9.02;4.50;;;8.30;39.70;;;;;;5032213;28;20070;-66
2022/02/02 01:05:27;;;;;;;6.88;4.13;;;8.20;39.90;;;;;;5032520;28;20099;-66
2022/02/02 01:08:19;;;;;;;9.63;4.95;;;8.20;40.30;;;;;;5032235;28;20521;-66
2022/02/02 01:11:02;;;;;;;10.68;4.88;;;8.10;40.50;;;;;;5032386;28;20044;-66
2022/02/02 01:19:41;;;;;;;10.85;5.70;;;7.90;42.30;;;;;;5036348;28;20493;-67
2022/02/02 01:29:53;;;;;;;8.23;5.22;;;7.90;42.00;;;;;;5035887;28;20079;-68
2022/02/02 01:32:19;;;;;;;9.63;5.47;;;7.90;42.30;;;;;;5035701;28;20490;-65
2022/02/02 01:34:44;;;;;;;10.48;5.85;;;7.90;42.60;;;;;;5035617;28;20018;-66
2022/02/02 01:37:11;;;;;;;8.93;5.00;;;7.80;42.40;;;;;;5035509;28;20021;-67
2022/02/02 01:39:37;;;;;;;12.32;5.38;;;7.90;42.20;;;;;;5035652;28;20432;-65
2022/02/02 01:42:07;;;;;;;9.02;5.00;;;7.80;42.00;;;;;;5035506;28;20060;-68
2022/02/02 01:45:03;;;;;;;9.57;4.40;;;7.80;42.20;;;;;;5035190;28;20402;-69
2022/02/02 01:47:23;;;;;;;10.15;5.20;;;7.80;43.60;;;;;;5035258;28;20075;-65
2022/02/02 01:55:07;;;;;;;9.65;4.93;;;7.70;43.60;;;;;;5035570;28;20033;-66
2022/02/02 02:00:18;;;;;;;6.93;4.32;;;7.70;43.20;;;;;;5035504;28;20112;-69
2022/02/02 02:02:44;;;;;;;8.20;4.78;;;7.70;42.80;;;;;;5035181;28;20025;-68
2022/02/02 02:05:10;;;;;;;10.20;4.60;;;7.60;43.20;;;;;;5035169;28;20048;-66
2022/02/02 02:07:36;;;;;;;8.18;4.47;;;7.60;43.00;;;;;;5034975;28;20477;-65
2022/02/02 02:10:03;;;;;;;8.90;5.07;;;7.60;43.30;;;;;;5034889;28;20026;-66
2022/02/02 02:12:45;;;;;;;8.40;4.93;;;7.60;43.20;;;;;;5035192;28;20469;-66
2022/02/02 02:15:13;;;;;;;9.15;5.50;;;7.60;43.20;;;;;;5033521;28;20032;-65
2022/02/02 02:17:39;;;;;;;10.82;5.22;;;7.50;43.50;;;;;;5034889;28;20030;-69
2022/02/02 02:20:05;;;;;;;7.65;5.03;;;7.50;43.60;;;;;;5034832;28;20176;-67
2022/02/02 02:22:35;;;;;;;10.95;5.78;;;7.50;44.00;;;;;;5034599;28;20025;-66
2022/02/02 02:25:01;;;;;;;8.40;4.95;;;7.50;43.90;;;;;;5034730;28;20046;-67
2022/02/02 02:27:26;;;;;;;13.80;5.78;;;7.50;44.00;;;;;;5034654;28;20031;-66
2022/02/02 02:30:10;;;;;;;29.10;10.02;;;7.40;44.20;;;;;;5033129;28;20064;-66
2022/02/02 02:35:32;;;;;;;10.50;5.72;;;7.50;45.60;;;;;;5034795;28;19905;-66
2022/02/02 02:57:05;;;;;;;7.35;4.80;;;7.20;45.70;;;;;;5034319;28;19928;-68
2022/02/02 02:59:59;;;;;;;10.90;5.35;;;7.20;45.40;;;;;;5034170;28;20132;-68
2022/02/02 03:30:05;;;;;;;10.38;6.18;;;6.80;46.50;;;;;;5033494;28;20093;-66
2022/02/02 03:58:49;;;;;;;10.40;6.10;;;6.70;47.80;;;;;;5033450;28;20040;-67
2022/02/02 04:01:23;;;;;;;11.15;5.72;;;6.70;48.40;;;;;;5033307;28;20108;-66
2022/02/02 04:06:30;;;;;;;10.82;5.90;;;6.70;47.80;;;;;;5032946;28;20602;-64
2022/02/02 04:08:56;;;;;;;12.10;6.60;;;6.70;48.00;;;;;;5032829;28;20162;-66
2022/02/02 04:11:42;;;;;;;9.60;6.13;;;6.70;48.00;;;;;;5032878;28;20037;-65
2022/02/02 04:15:39;;;;;;;10.88;6.10;;;6.50;47.60;;;;;;5031555;28;20021;-66
2022/02/02 04:55:00;;;;;;;8.77;5.70;;;6.50;49.10;;;;;;5036498;28;20036;-66
2022/02/02 05:01:29;;;;;;;10.18;5.90;;;6.50;49.30;;;;;;5053817;28;20036;-69
2022/02/02 05:16:35;;;;;;;11.30;5.90;;;6.50;50.20;;;;;;5036324;28;20059;-66
2022/02/02 05:42:01;;;;;;;13.63;6.70;;;6.10;51.70;;;;;;5035847;28;20045;-66
2022/02/02 05:44:13;;;;;;;15.75;7.03;;;6.10;51.80;;;;;;5035915;28;20395;-68
2022/02/02 05:52:11;;;;;;;17.80;8.57;;;5.90;52.40;;;;;;5035251;28;20051;-65
2022/02/02 05:54:37;;;;;;;16.83;6.63;;;5.80;52.60;;;;;;5035232;28;20028;-68
2022/02/02 05:57:03;;;;;;;13.30;7.05;;;5.80;53.50;;;;;;5034960;28;20032;-67
2022/02/02 05:59:32;;;;;;;13.90;7.18;;;5.70;53.80;;;;;;5034422;28;20379;-66
2022/02/02 06:01:58;;;;;;;13.65;7.18;;;5.70;53.60;;;;;;5035174;28;20535;-67
2022/02/02 06:04:26;;;;;;;12.43;7.80;;;5.70;53.90;;;;;;5034790;28;20080;-69
2022/02/02 06:06:54;;;;;;;13.38;7.55;;;5.60;53.90;;;;;;5035100;28;20018;-66
2022/02/02 06:09:23;;;;;;;14.13;7.70;;;5.60;54.10;;;;;;5034860;28;20425;-67
2022/02/02 06:11:51;;;;;;;12.82;7.82;;;5.60;54.20;;;;;;5034809;28;20458;-68
2022/02/02 06:14:23;;;;;;;14.52;7.55;;;5.60;54.50;;;;;;5034907;28;20040;-69
2022/02/02 06:16:53;;;;;;;13.63;8.15;;;5.60;54.90;;;;;;5034934;28;20021;-70
2022/02/02 06:19:19;;;;;;;13.75;7.82;;;5.70;54.90;;;;;;5034830;28;20026;-67
2022/02/02 06:22:11;;;;;;;15.60;7.60;;;5.70;54.80;;;;;;5034488;28;20049;-68
2022/02/02 06:24:49;;;;;;;15.55;8.65;;;5.70;55.50;;;;;;5033580;28;20045;-68
2022/02/02 06:27:24;;;;;;;15.95;8.40;;;5.70;55.80;;;;;;5034331;28;20441;-73
2022/02/02 06:30:01;;;;;;;19.23;8.80;;;5.70;55.90;;;;;;5034083;28;20045;-69
2022/02/02 06:32:31;;;;;;;19.13;8.95;;;5.80;56.30;;;;;;5034167;28;20036;-67
2022/02/02 06:35:03;;;;;;;20.80;9.02;;;5.80;55.80;;;;;;5034198;28;20060;-66
2022/02/02 06:37:29;;;;;;;14.70;8.88;;;5.70;55.70;;;;;;5034189;28;20030;-67
2022/02/02 06:39:55;;;;;;;18.20;8.77;;;5.70;56.30;;;;;;5034081;28;20029;-71
2022/02/02 06:42:21;;;;;;;13.63;8.57;;;5.70;56.40;;;;;;5034098;28;20025;-64
2022/02/02 06:44:47;;;;;;;21.63;10.35;;;5.70;56.20;;;;;;5033709;28;20033;-69
2022/02/02 06:47:14;;;;;;;11.30;8.02;;;5.70;56.30;;;;;;5034081;28;20029;-71
2022/02/02 06:49:43;;;;;;;14.95;8.65;;;5.70;55.90;;;;;;5032797;28;20026;-67
2022/02/02 06:52:19;;;;;;;21.17;9.00;;;5.70;55.90;;;;;;5033857;28;20026;-67
2022/02/02 06:55:01;;;;;;;18.48;9.68;;;5.70;56.40;;;;;;5033653;28;20455;-65
2022/02/02 06:57:52;;;;;;;14.00;8.55;;;5.70;56.40;;;;;;5033651;28;20033;-65
2022/02/02 07:00:32;;;;;;;14.88;8.88;;;5.80;56.30;;;;;;5033576;28;20075;-66
2022/02/02 07:03:32;;;;;;;21.90;9.73;;;5.90;56.40;;;;;;5033403;28;20037;-67
2022/02/02 07:06:19;;;;;;;16.38;8.50;;;6.00;56.60;;;;;;5033419;28;20048;-65
2022/02/02 07:11:31;;;;;;;21.52;9.80;;;6.10;55.50;;;;;;5033453;28;20068;-69
2022/02/02 07:14:16;;;;;;;16.75;8.90;;;6.20;55.90;;;;;;5033283;28;20033;-65
2022/02/02 07:19:29;;;;;;;17.38;8.23;;;6.40;54.60;;;;;;5033277;28;20021;-66
2022/02/02 07:32:20;;;;;;;18.08;8.18;;;6.80;52.80;;;;;;5032968;28;20438;-65
2022/02/02 07:34:54;;;;;;;20.63;6.70;;;6.90;52.50;;;;;;5032519;28;20033;-66
2022/02/02 07:37:32;;;;;;;13.48;6.60;;;7.00;52.80;;;;;;5032640;28;20033;-65
2022/02/02 07:40:03;;;;;;;20.48;7.53;;;7.10;51.20;;;;;;5032282;28;20037;-65
2022/02/02 07:42:30;;;;;;;20.55;7.18;;;7.20;52.00;;;;;;5032375;28;20014;-64
2022/02/02 07:45:07;;;;;;;9.43;5.68;;;7.20;50.70;;;;;;5032456;28;20037;-66
2022/02/02 07:47:35;;;;;;;20.30;6.60;;;7.30;50.90;;;;;;5032790;28;20022;-65
2022/02/02 07:50:03;;;;;;;18.70;6.22;;;7.40;50.80;;;;;;5032516;28;20086;-67
2022/02/02 07:52:30;;;;;;;21.60;9.50;;;7.40;50.50;;;;;;5032488;28;20028;-63
2022/02/02 07:55:00;;;;;;;13.00;7.13;;;7.40;50.80;;;;;;5032423;28;20056;-65
2022/02/02 07:57:28;;;;;;;12.30;6.75;;;7.50;50.80;;;;;;5032330;28;20087;-67
2022/02/02 07:59:59;;;;;;;14.75;6.53;;;7.50;50.80;;;;;;5032244;28;20037;-64
2022/02/02 08:05:00;;;;;;;14.05;7.57;;;7.50;50.70;;;;;;5032148;28;20060;-65
2022/02/02 08:07:32;;;;;;;14.02;6.85;;;7.70;51.50;;;;;;5032209;28;20021;-68
2022/02/02 08:10:21;;;;;;;12.55;6.40;;;7.50;50.30;;;;;;5032160;28;20026;-65
2022/02/02 08:12:59;;;;;;;14.20;6.50;;;7.60;51.50;;;;;;5031958;28;20041;-64
2022/02/02 08:15:29;;;;;;;18.38;6.88;;;7.50;50.10;;;;;;5032470;28;20108;-66
2022/02/02 08:17:56;;;;;;;21.60;6.53;;;7.50;50.20;;;;;;5032167;28;20132;-66
2022/02/02 08:20:23;;;;;;;16.80;6.28;;;7.50;50.20;;;;;;5033614;28;20067;-66
2022/02/02 08:22:49;;;;;;;13.45;6.10;;;7.60;50.30;;;;;;5036200;28;20474;-67
2022/02/02 08:25:25;;;;;;;13.85;6.25;;;7.60;50.10;;;;;;5036061;28;20116;-67
2022/02/02 08:27:52;;;;;;;12.73;6.30;;;7.50;49.50;;;;;;5036242;28;20098;-66
2022/02/02 08:30:20;;;;;;;12.25;6.43;;;7.50;50.00;;;;;;5036036;28;20040;-67
2022/02/02 08:32:50;;;;;;;14.73;7.18;;;7.50;49.80;;;;;;5036197;28;20430;-66
2022/02/02 08:35:20;;;;;;;15.00;6.60;;;7.50;49.40;;;;;;5036290;28;20026;-67
2022/02/02 08:37:51;;;;;;;13.38;6.50;;;7.40;49.70;;;;;;5036272;28;20040;-67
2022/02/02 08:42:42;;;;;;;15.52;7.50;;;7.50;50.20;;;;;;5035653;28;20039;-66
2022/02/02 08:45:24;;;;;;;16.17;7.40;;;7.50;49.90;;;;;;5035787;28;20465;-66
2022/02/02 08:47:58;;;;;;;13.45;7.53;;;7.60;49.90;;;;;;5035810;28;20437;-69
2022/02/02 08:50:31;;;;;;;15.40;8.70;;;7.70;50.30;;;;;;5035596;28;20060;-68
2022/02/02 08:53:08;;;;;;;14.97;7.47;;;7.80;49.80;;;;;;5034457;28;20029;-66
2022/02/02 08:55:56;;;;;;;16.42;7.30;;;7.80;49.80;;;;;;5035710;28;20350;-69
2022/02/02 08:58:24;;;;;;;14.55;8.38;;;7.90;49.70;;;;;;5035404;28;20086;-66
2022/02/02 09:00:52;;;;;;;13.88;7.07;;;7.90;49.90;;;;;;5035468;28;20034;-69
2022/02/02 09:06:02;;;;;;;13.18;8.27;;;8.10;49.50;;;;;;5035520;28;20072;-65
2022/02/02 09:08:30;;;;;;;13.85;7.35;;;8.20;49.70;;;;;;5033883;28;20056;-66
2022/02/02 09:24:45;;;;;;;15.88;7.57;;;8.70;48.50;;;;;;5034897;28;20115;-67
2022/02/02 09:33:02;;;;;;;19.40;7.97;;;8.90;48.60;;;;;;5034219;28;20033;-67
2022/02/02 09:35:08;;;;;;;12.73;6.80;;;9.00;48.30;;;;;;5034589;28;20030;-65
2022/02/02 09:37:34;;;;;;;11.88;7.10;;;9.10;48.50;;;;;;5034778;28;20025;-65
2022/02/02 09:42:54;;;;;;;12.77;6.60;;;9.20;48.30;;;;;;5043445;28;20155;-66
2022/02/02 09:45:21;;;;;;;14.90;6.88;;;9.40;48.30;;;;;;5034936;28;20037;-66
2022/02/02 09:47:56;;;;;;;23.92;7.32;;;9.40;48.10;;;;;;5033300;28;20017;-67
2022/02/02 09:50:29;;;;;;;13.43;7.28;;;9.50;47.90;;;;;;5034738;28;20116;-66
2022/02/02 09:52:58;;;;;;;12.38;6.40;;;9.60;47.10;;;;;;5034537;28;20053;-66
2022/02/02 09:58:58;;;;;;;12.50;7.05;;;9.80;47.40;;;;;;5044000;28;20033;-66
2022/02/02 10:10:34;;;;;;;11.57;7.00;;;10.20;46.10;;;;;;5034445;28;20036;-69
2022/02/02 10:15:29;;;;;;;14.63;7.07;;;10.50;45.20;;;;;;5034436;28;20036;-67
2022/02/02 10:18:03;;;;;;;13.73;7.30;;;10.50;44.30;;;;;;5034394;28;20033;-66
2022/02/02 10:20:30;;;;;;;12.80;7.40;;;10.60;45.60;;;;;;5034270;28;20093;-66
2022/02/02 10:22:58;;;;;;;14.35;6.95;;;10.70;44.10;;;;;;5034113;28;20037;-66
2022/02/02 10:25:35;;;;;;;12.88;7.28;;;10.90;44.00;;;;;;5033975;28;20034;-67
2022/02/02 10:28:20;;;;;;;13.55;6.32;;;11.00;44.40;;;;;;5033956;28;20104;-69
2022/02/02 10:30:49;;;;;;;14.55;6.15;;;11.10;45.30;;;;;;5033852;28;20133;-66
2022/02/02 10:33:24;;;;;;;12.10;6.65;;;11.30;43.40;;;;;;5033943;28;20188;-67
2022/02/02 10:35:52;;;;;;;13.27;6.85;;;11.30;43.20;;;;;;5033944;28;20099;-66
2022/02/02 10:38:26;;;;;;;14.63;6.47;;;11.40;43.70;;;;;;5033860;28;20497;-69
2022/02/02 10:43:37;;;;;;;15.73;6.38;;;11.60;45.00;;;;;;5032793;28;19905;-72
2022/02/02 10:49:21;;;;;;;11.38;5.05;;;11.90;45.30;;;;;;5040121;28;20120;-69
2022/02/02 10:51:58;;;;;;;13.68;5.47;;;12.00;43.60;;;;;;5033712;28;20068;-74
2022/02/02 10:54:37;;;;;;;17.45;5.20;;;12.10;43.30;;;;;;5033283;28;20531;-71
2022/02/02 10:57:33;;;;;;;10.10;4.85;;;12.20;43.50;;;;;;5033105;28;20025;-68
2022/02/02 11:00:08;;;;;;;9.18;4.25;;;12.30;43.40;;;;;;5033278;28;20024;-72
2022/02/02 11:07:47;;;;;;;10.52;3.97;;;12.60;43.90;;;;;;5033305;28;20040;-67
2022/02/02 11:10:14;;;;;;;12.23;4.35;;;12.70;44.10;;;;;;5033037;28;20080;-67
2022/02/02 11:12:41;;;;;;;8.30;3.60;;;12.80;44.20;;;;;;5032907;28;20131;-70
2022/02/02 11:15:40;;;;;;;9.65;3.45;;;13.00;44.20;;;;;;5032947;28;20115;-66
2022/02/02 11:18:23;;;;;;;8.45;3.92;;;13.10;44.30;;;;;;5032539;28;20037;-69
2022/02/02 11:20:49;;;;;;;8.32;3.60;;;13.10;45.80;;;;;;5032901;28;20025;-68
2022/02/02 11:23:15;;;;;;;9.63;3.97;;;13.20;44.60;;;;;;5032751;28;20074;-68
2022/02/02 11:25:48;;;;;;;9.70;3.95;;;13.30;44.70;;;;;;5032865;28;20045;-67
2022/02/02 11:28:48;;;;;;;9.07;4.18;;;13.40;44.30;;;;;;5032785;28;20144;-69
2022/02/02 11:31:17;;;;;;;8.60;3.45;;;13.50;44.30;;;;;;5032303;28;20037;-67
2022/02/02 11:33:48;;;;;;;10.95;3.50;;;13.50;44.30;;;;;;5032817;28;20029;-70
2022/02/02 11:36:40;;;;;;;13.50;4.85;;;13.60;44.50;;;;;;5032724;28;20028;-68
2022/02/02 11:39:33;;;;;;;9.57;3.28;;;13.70;44.70;;;;;;5028840;28;20170;-70
2022/02/02 11:42:10;;;;;;;9.80;3.95;;;13.80;44.70;;;;;;5032493;28;20032;-67
2022/02/02 11:50:05;;;;;;;11.10;3.30;;;14.00;45.20;;;;;;5032334;28;20037;-71
2022/02/02 11:52:31;;;;;;;9.82;4.13;;;14.10;45.00;;;;;;5032329;28;20104;-71
2022/02/02 11:54:57;;;;;;;10.50;4.45;;;14.20;45.20;;;;;;5031847;28;20079;-71
2022/02/02 11:57:33;;;;;;;9.85;3.95;;;14.20;45.20;;;;;;5030959;28;20029;-72
2022/02/02 12:00:19;;;;;;;10.07;3.90;;;14.30;45.40;;;;;;5032367;28;20025;-73
2022/02/02 12:06:07;;;;;;;14.32;4.55;;;14.40;45.20;;;;;;5032302;28;20057;-68
2022/02/02 12:35:53;;;;;;;11.10;4.50;;;15.00;45.10;;;;;;5032308;28;20032;-67
2022/02/02 12:57:48;;;;;;;11.98;4.60;;;15.90;45.30;;;;;;5031236;28;20022;-70
2022/02/02 13:00:35;;;;;;;13.60;4.32;;;16.00;45.40;;;;;;5031366;28;20029;-70
2022/02/02 13:03:02;;;;;;;11.85;4.25;;;16.00;45.30;;;;;;5031060;28;20029;-69
2022/02/02 13:05:28;;;;;;;11.43;4.55;;;16.10;45.60;;;;;;5031124;28;20076;-71
2022/02/02 13:07:55;;;;;;;15.13;4.70;;;16.10;45.30;;;;;;5033210;28;20042;-71
2022/02/02 13:10:26;;;;;;;10.20;4.43;;;16.20;45.50;;;;;;5034863;28;20045;-68
2022/02/02 13:13:05;;;;;;;9.80;4.95;;;16.30;45.60;;;;;;5033796;28;20072;-71
2022/02/02 13:26:08;;;;;;;10.07;2.67;;;16.70;44.10;;;;;;5034797;28;20029;-73
2022/02/02 13:28:43;;;;;;;7.47;2.35;;;16.70;44.50;;;;;;5034788;28;20071;-70
2022/02/02 13:31:21;;;;;;;8.20;3.00;;;16.60;43.20;;;;;;5034470;28;20033;-69
2022/02/02 13:33:50;;;;;;;9.57;2.80;;;16.60;44.20;;;;;;5034569;28;20109;-69
2022/02/02 13:39:15;;;;;;;7.90;2.78;;;16.70;44.00;;;;;;5034601;28;20033;-72
2022/02/02 14:01:35;;;;;;;11.48;3.22;;;16.70;42.90;;;;;;5034065;28;20040;-71
2022/02/02 14:31:14;;;;;;;9.82;4.30;;;16.90;42.20;;;;;;5033682;28;20267;-70
2022/02/02 14:33:47;;;;;;;11.85;4.20;;;16.90;42.70;;;;;;5033552;28;20044;-68
2022/02/02 14:39:27;;;;;;;12.52;4.55;;;17.00;43.10;;;;;;5032480;28;20106;-70
2022/02/02 14:42:13;;;;;;;16.50;6.68;;;17.10;42.50;;;;;;5033463;28;20104;-71
2022/02/02 14:44:43;;;;;;;12.35;4.80;;;17.10;42.60;;;;;;5033386;28;20152;-70
2022/02/02 14:47:23;;;;;;;11.55;4.40;;;17.10;42.60;;;;;;5033410;28;20036;-72
2022/02/02 15:31:54;;;;;;;10.40;4.45;;;16.80;40.70;;;;;;5032094;28;20063;-69
2022/02/02 15:34:29;;;;;;;9.40;4.10;;;16.80;41.40;;;;;;5032481;28;20079;-71
2022/02/02 15:39:24;;;;;;;8.27;3.83;;;16.70;41.80;;;;;;5032383;28;20037;-66
2022/02/02 16:03:05;;;;;;;10.23;4.35;;;16.30;42.20;;;;;;5038550;28;20091;-69
2022/02/02 16:05:53;;;;;;;9.40;4.03;;;16.20;41.80;;;;;;5032181;28;20033;-69
2022/02/02 16:08:23;;;;;;;13.65;4.80;;;16.20;42.20;;;;;;5031757;28;20091;-68
2022/02/02 16:13:28;;;;;;;10.15;4.45;;;16.10;43.60;;;;;;5031625;28;20552;-68
2022/02/02 16:15:58;;;;;;;12.70;4.72;;;16.00;44.00;;;;;;5031933;28;20033;-67
2022/02/02 16:35:52;;;;;;;13.35;6.18;;;15.40;45.10;;;;;;5041491;28;20121;-71
2022/02/02 16:38:20;;;;;;;20.60;10.13;;;15.30;44.80;;;;;;5031862;28;20078;-71
2022/02/02 16:40:50;;;;;;;15.40;7.03;;;15.20;46.30;;;;;;5031994;28;20540;-69
2022/02/02 16:43:18;;;;;;;11.93;5.68;;;15.20;46.40;;;;;;5035514;28;20454;-69
2022/02/02 16:45:50;;;;;;;18.50;7.20;;;15.10;46.70;;;;;;5035725;28;20091;-69
2022/02/02 16:48:17;;;;;;;15.20;6.70;;;15.00;46.80;;;;;;5034070;28;20386;-71
2022/02/02 16:50:45;;;;;;;15.10;6.43;;;14.90;46.80;;;;;;5035656;28;20037;-69
2022/02/02 16:53:26;;;;;;;19.17;9.15;;;14.90;47.00;;;;;;5035304;28;20668;-69
2022/02/02 17:31:32;;;;;;;21.85;8.48;;;14.30;47.20;;;;;;5034797;28;20533;-72
2022/02/02 17:34:00;;;;;;;19.33;8.68;;;14.20;47.50;;;;;;5034346;28;20371;-69
2022/02/02 17:36:32;;;;;;;17.42;8.82;;;14.20;47.70;;;;;;5034757;28;20021;-72
2022/02/02 17:39:05;;;;;;;16.05;7.22;;;14.10;48.00;;;;;;5035051;28;20375;-71
2022/02/02 17:42:06;;;;;;;16.98;7.28;;;14.10;48.10;;;;;;5034902;28;20068;-71
2022/02/02 18:20:22;;;;;;;19.80;9.07;;;13.50;50.00;;;;;;5034102;28;20514;-72
2022/02/02 18:22:56;;;;;;;16.13;8.45;;;13.40;50.20;;;;;;5032772;28;20344;-71
2022/02/02 18:25:31;;;;;;;15.20;7.18;;;13.40;49.50;;;;;;5034818;28;20060;-70
2022/02/02 18:28:27;;;;;;;13.18;6.07;;;13.40;49.40;;;;;;5032946;28;20026;-72
2022/02/02 18:35:47;;;;;;;13.60;5.88;;;13.50;50.30;;;;;;5034273;28;20044;-72
2022/02/02 18:48:41;;;;;;;11.48;5.43;;;13.40;50.60;;;;;;5033555;28;20025;-69
2022/02/02 18:51:41;;;;;;;12.35;6.07;;;13.40;51.00;;;;;;5033514;28;20140;-66
2022/02/02 19:53:14;;;;;;;12.93;6.47;;;12.60;56.90;;;;;;5032456;28;19911;-75
2022/02/02 19:55:41;;;;;;;16.23;6.93;;;12.60;56.00;;;;;;5032449;28;20036;-66
2022/02/02 20:06:42;;;;;;;16.25;8.07;;;12.50;56.50;;;;;;5032413;28;20088;-66
2022/02/02 20:11:43;;;;;;;18.35;7.60;;;12.40;56.80;;;;;;5032591;28;20112;-66
2022/02/02 20:14:11;;;;;;;18.27;7.72;;;12.40;57.00;;;;;;5032349;28;20033;-70
2022/02/02 20:16:37;;;;;;;19.10;7.93;;;12.40;57.30;;;;;;5031372;28;20044;-79
2022/02/02 20:19:07;;;;;;;16.30;8.10;;;12.30;57.70;;;;;;5031744;28;20033;-75
2022/02/02 20:21:36;;;;;;;15.45;7.97;;;12.30;57.50;;;;;;5032353;28;20030;-74
2022/02/02 20:24:05;;;;;;;18.38;8.05;;;12.30;57.80;;;;;;5032367;28;20041;-72
2022/02/02 20:26:35;;;;;;;19.65;8.13;;;12.30;58.00;;;;;;5033469;28;20053;-76
2022/02/02 20:29:06;;;;;;;17.10;7.95;;;12.30;58.10;;;;;;5033161;28;20116;-78
2022/02/02 20:31:33;;;;;;;13.93;7.65;;;12.20;58.60;;;;;;5032177;28;20486;-78
2022/02/02 20:34:01;;;;;;;18.35;8.05;;;12.20;58.50;;;;;;5032508;28;20013;-84
2022/02/02 20:36:26;;;;;;;16.25;7.60;;;12.20;58.90;;;;;;5032521;28;20039;-81
2022/02/02 20:38:52;;;;;;;18.33;8.30;;;12.20;58.50;;;;;;5030926;28;20528;-74
2022/02/02 20:41:18;;;;;;;13.73;7.60;;;12.20;58.70;;;;;;5032483;28;20589;-77
2022/02/02 20:44:04;;;;;;;15.45;7.97;;;12.10;58.60;;;;;;5030811;28;20113;-81
2022/02/02 21:05:35;;;;;;;16.67;9.10;;;12.00;60.00;;;;;;5033731;28;20414;-79
2022/02/02 21:10:33;;;;;;;18.00;9.30;;;11.90;60.00;;;;;;5032625;28;20088;-80
2022/02/02 21:15:47;;;;;;;20.30;9.80;;;11.90;59.70;;;;;;5031977;28;20344;-76
2022/02/02 21:18:16;;;;;;;21.92;10.23;;;11.80;60.40;;;;;;5031888;28;20482;-84
2022/02/02 21:21:16;;;;;;;29.02;11.25;;;11.80;60.40;;;;;;5031853;28;20037;-81
2022/02/02 21:23:44;;;;;;;21.38;11.70;;;11.80;60.20;;;;;;5031826;28;20088;-77
2022/02/02 21:26:18;;;;;;;19.55;11.38;;;11.70;61.50;;;;;;5031667;28;20080;-81
2022/02/02 21:28:43;;;;;;;20.15;11.63;;;11.70;61.50;;;;;;5033192;28;20028;-74
2022/02/02 21:31:11;;;;;;;22.83;11.80;;;11.60;61.00;;;;;;5033593;28;20391;-68
2022/02/02 21:33:38;;;;;;;20.95;10.82;;;11.60;61.10;;;;;;5034827;28;20025;-69
2022/02/02 21:36:08;;;;;;;21.65;10.63;;;11.60;61.30;;;;;;5034843;28;20070;-75
2022/02/02 21:38:43;;;;;;;18.33;9.43;;;11.50;61.80;;;;;;5034977;28;20370;-71
2022/02/02 21:41:16;;;;;;;19.70;9.55;;;11.50;62.30;;;;;;5035479;28;20026;-84
2022/02/02 21:43:41;;;;;;;21.10;9.80;;;11.50;62.70;;;;;;5035323;28;20205;-75
2022/02/02 21:46:07;;;;;;;19.00;9.65;;;11.40;62.50;;;;;;5034498;28;20048;-81
2022/02/02 21:48:34;;;;;;;16.35;9.85;;;11.50;62.90;;;;;;5035100;28;20104;-76
2022/02/02 21:51:09;;;;;;;17.92;10.77;;;11.40;63.00;;;;;;5034726;28;20494;-70
2022/02/02 21:53:35;;;;;;;23.55;9.55;;;11.40;63.10;;;;;;5035074;28;20169;-69
2022/02/02 21:56:00;;;;;;;24.60;11.07;;;11.40;63.00;;;;;;5034581;28;20029;-67
2022/02/02 21:58:26;;;;;;;18.60;10.02;;;11.40;62.90;;;;;;5033238;28;20364;-71
2022/02/02 22:00:53;;;;;;;20.90;9.95;;;11.40;63.10;;;;;;5034300;28;20029;-74
2022/02/02 22:03:18;;;;;;;18.10;10.10;;;11.40;63.20;;;;;;5034285;28;20038;-71
2022/02/02 22:05:44;;;;;;;23.45;9.95;;;11.30;63.50;;;;;;5033163;28;20363;-70
2022/02/02 22:08:11;;;;;;;20.77;10.18;;;11.30;63.60;;;;;;5034644;28;20021;-70
2022/02/02 22:10:39;;;;;;;21.27;9.65;;;11.30;63.80;;;;;;5033484;28;20057;-68
2022/02/02 22:13:05;;;;;;;16.45;8.85;;;11.30;64.00;;;;;;5034192;28;20025;-70
2022/02/02 22:15:41;;;;;;;24.08;9.98;;;11.30;64.50;;;;;;5034380;28;20386;-70
2022/02/02 22:18:07;;;;;;;15.93;9.40;;;11.30;64.30;;;;;;5034474;28;20072;-70
2022/02/02 22:20:33;;;;;;;20.75;9.57;;;11.30;64.70;;;;;;5034404;28;20109;-70
2022/02/02 22:22:59;;;;;;;17.95;8.68;;;11.30;64.30;;;;;;5034245;28;20025;-68
2022/02/02 22:25:25;;;;;;;17.10;9.15;;;11.30;64.50;;;;;;5034205;28;20033;-73
2022/02/02 22:27:51;;;;;;;13.07;8.13;;;11.30;64.60;;;;;;5034239;28;20471;-75
2022/02/02 22:30:16;;;;;;;15.90;8.45;;;11.20;64.70;;;;;;5034154;28;20052;-71
2022/02/02 22:32:42;;;;;;;21.52;9.07;;;11.20;64.70;;;;;;5034061;28;20029;-75
2022/02/02 22:35:09;;;;;;;21.02;9.52;;;11.20;65.00;;;;;;5033854;28;20032;-76
2022/02/02 22:37:35;;;;;;;22.02;9.63;;;11.20;65.30;;;;;;5032589;28;20044;-74
2022/02/02 22:40:03;;;;;;;21.25;9.63;;;11.20;65.30;;;;;;5033611;28;20026;-76
2022/02/02 22:42:30;;;;;;;19.55;8.98;;;11.20;65.60;;;;;;5033917;28;20079;-74
2022/02/02 22:45:00;;;;;;;14.77;8.73;;;11.20;65.80;;;;;;5032839;28;20108;-75
2022/02/02 22:47:29;;;;;;;15.50;8.25;;;11.10;66.00;;;;;;5034106;28;20033;-68
2022/02/02 22:49:55;;;;;;;15.02;8.80;;;11.10;65.70;;;;;;5034205;28;20037;-73
2022/02/02 22:52:21;;;;;;;18.25;9.07;;;11.10;65.50;;;;;;5032858;28;20463;-70
2022/02/02 22:54:48;;;;;;;19.33;9.02;;;11.10;65.90;;;;;;5034075;28;20022;-72
2022/02/02 22:57:14;;;;;;;19.58;8.80;;;11.00;65.60;;;;;;5033208;28;20052;-68
2022/02/02 22:59:45;;;;;;;18.42;9.70;;;11.00;66.50;;;;;;5034023;28;20374;-73
2022/02/02 23:02:59;;;;;;;17.17;9.63;;;10.90;66.50;;;;;;5032807;28;20120;-71
2022/02/02 23:04:57;;;;;;;17.55;9.63;;;10.90;67.30;;;;;;5039872;28;20064;-69
2022/02/02 23:07:25;;;;;;;19.63;9.95;;;10.80;67.10;;;;;;5034008;28;20029;-72
2022/02/02 23:09:52;;;;;;;17.98;10.55;;;10.80;67.20;;;;;;5033764;28;20033;-73
2022/02/02 23:12:20;;;;;;;23.45;12.00;;;10.70;68.20;;;;;;5033741;28;20498;-69
2022/02/02 23:14:46;;;;;;;19.10;10.32;;;10.70;68.40;;;;;;5033735;28;20079;-67
2022/02/02 23:17:15;;;;;;;18.75;9.30;;;10.70;68.20;;;;;;5033516;28;20033;-70
2022/02/02 23:19:45;;;;;;;20.23;11.88;;;10.70;68.20;;;;;;5033325;28;20548;-67
2022/02/02 23:22:14;;;;;;;18.42;11.48;;;10.60;68.40;;;;;;5033627;28;20029;-67
2022/02/02 23:24:45;;;;;;;16.77;10.10;;;10.60;68.50;;;;;;5033078;28;20091;-70
2022/02/02 23:27:11;;;;;;;18.58;11.32;;;10.60;68.40;;;;;;5032157;28;20120;-67
2022/02/02 23:29:46;;;;;;;19.48;10.65;;;10.50;68.50;;;;;;5031936;28;20029;-71
2022/02/02 23:32:13;;;;;;;21.50;10.75;;;10.50;68.80;;;;;;5033337;28;20025;-68
2022/02/02 23:34:40;;;;;;;20.75;11.10;;;10.50;68.70;;;;;;5033087;28;20105;-67
2022/02/02 23:37:08;;;;;;;21.58;10.90;;;10.40;68.80;;;;;;5033033;28;20387;-68
2022/02/02 23:39:40;;;;;;;19.02;11.07;;;10.40;68.80;;;;;;5031947;28;20060;-70
2022/02/02 23:42:20;;;;;;;16.70;11.02;;;10.40;68.80;;;;;;5033401;28;20096;-69
2022/02/02 23:44:48;;;;;;;22.85;11.80;;;10.40;68.70;;;;;;5032956;28;20079;-66
2022/02/02 23:47:16;;;;;;;23.00;11.27;;;10.40;68.70;;;;;;5033236;28;20429;-67
2022/02/02 23:49:51;;;;;;;18.30;11.50;;;10.40;68.70;;;;;;5032768;28;20068;-66
2022/02/02 23:52:33;;;;;;;19.00;11.15;;;10.40;68.60;;;;;;5032487;28;20033;-67
2022/02/02 23:55:03;;;;;;;21.80;12.15;;;10.30;68.30;;;;;;5032738;28;20093;-71
